sensor_id;sensor_type;location;lat;lon;timestamp;P1;durP1;ratioP1;P2;durP2;ratioP2
36663;SDS011;53333;51.976;20.144;2023-12-20T00:00:16;26.90;;;16.15;;
36663;SDS011;53333;51.976;20.144;2023-12-20T00:02:49;24.00;;;13.50;;
36663;SDS011;53333;51.976;20.144;2023-12-20T00:05:22;22.55;;;13.50;;
36663;SDS011;53333;51.976;20.144;2023-12-20T00:07:55;26.33;;;15.13;;
36663;SDS011;53333;51.976;20.144;2023-12-20T00:10:28;25.10;;;14.10;;
36663;SDS011;53333;51.976;20.144;2023-12-20T00:13:01;22.83;;;14.20;;
36663;SDS011;53333;51.976;20.144;2023-12-20T00:15:35;20.17;;;13.55;;
36663;SDS011;53333;51.976;20.144;2023-12-20T00:18:08;21.92;;;13.93;;
36663;SDS011;53333;51.976;20.144;2023-12-20T00:20:41;28.83;;;16.83;;
36663;SDS011;53333;51.976;20.144;2023-12-20T00:23:14;21.10;;;14.27;;
36663;SDS011;53333;51.976;20.144;2023-12-20T00:25:47;23.23;;;14.48;;
36663;SDS011;53333;51.976;20.144;2023-12-20T00:28:20;22.10;;;13.53;;
36663;SDS011;53333;51.976;20.144;2023-12-20T00:30:54;20.70;;;12.70;;
36663;SDS011;53333;51.976;20.144;2023-12-20T00:33:27;19.88;;;12.13;;
36663;SDS011;53333;51.976;20.144;2023-12-20T00:36:00;20.63;;;12.32;;
36663;SDS011;53333;51.976;20.144;2023-12-20T00:38:33;18.88;;;11.93;;
36663;SDS011;53333;51.976;20.144;2023-12-20T00:41:06;19.10;;;12.40;;
36663;SDS011;53333;51.976;20.144;2023-12-20T00:43:39;19.40;;;11.93;;
36663;SDS011;53333;51.976;20.144;2023-12-20T00:46:13;20.47;;;11.90;;
36663;SDS011;53333;51.976;20.144;2023-12-20T00:48:46;20.25;;;12.52;;
36663;SDS011;53333;51.976;20.144;2023-12-20T00:51:19;16.17;;;11.30;;
36663;SDS011;53333;51.976;20.144;2023-12-20T00:53:53;19.85;;;13.30;;
36663;SDS011;53333;51.976;20.144;2023-12-20T00:56:27;18.67;;;11.75;;
36663;SDS011;53333;51.976;20.144;2023-12-20T00:59:00;20.00;;;12.57;;
36663;SDS011;53333;51.976;20.144;2023-12-20T01:01:37;19.00;;;11.35;;
36663;SDS011;53333;51.976;20.144;2023-12-20T01:04:13;19.35;;;11.00;;
36663;SDS011;53333;51.976;20.144;2023-12-20T01:06:46;16.58;;;11.27;;
36663;SDS011;53333;51.976;20.144;2023-12-20T01:09:19;18.00;;;11.93;;
36663;SDS011;53333;51.976;20.144;2023-12-20T01:11:54;18.70;;;12.43;;
36663;SDS011;53333;51.976;20.144;2023-12-20T01:14:27;18.83;;;11.53;;
36663;SDS011;53333;51.976;20.144;2023-12-20T01:17:01;16.85;;;11.05;;
36663;SDS011;53333;51.976;20.144;2023-12-20T01:19:34;18.45;;;11.02;;
36663;SDS011;53333;51.976;20.144;2023-12-20T01:22:08;17.13;;;10.85;;
36663;SDS011;53333;51.976;20.144;2023-12-20T01:24:40;16.60;;;10.95;;
36663;SDS011;53333;51.976;20.144;2023-12-20T01:27:14;15.77;;;11.00;;
36663;SDS011;53333;51.976;20.144;2023-12-20T01:29:47;19.57;;;11.13;;
36663;SDS011;53333;51.976;20.144;2023-12-20T01:32:21;16.67;;;11.10;;
36663;SDS011;53333;51.976;20.144;2023-12-20T01:34:54;16.90;;;11.02;;
36663;SDS011;53333;51.976;20.144;2023-12-20T01:37:31;18.50;;;11.40;;
36663;SDS011;53333;51.976;20.144;2023-12-20T01:40:05;17.53;;;10.43;;
36663;SDS011;53333;51.976;20.144;2023-12-20T01:42:39;17.65;;;10.27;;
36663;SDS011;53333;51.976;20.144;2023-12-20T01:47:47;16.50;;;10.80;;
36663;SDS011;53333;51.976;20.144;2023-12-20T01:50:20;15.02;;;10.00;;
36663;SDS011;53333;51.976;20.144;2023-12-20T01:52:54;16.05;;;10.20;;
36663;SDS011;53333;51.976;20.144;2023-12-20T01:55:29;14.65;;;10.27;;
36663;SDS011;53333;51.976;20.144;2023-12-20T01:58:05;17.92;;;11.20;;
36663;SDS011;53333;51.976;20.144;2023-12-20T02:00:39;13.30;;;9.60;;
36663;SDS011;53333;51.976;20.144;2023-12-20T02:03:14;16.52;;;10.68;;
36663;SDS011;53333;51.976;20.144;2023-12-20T02:05:47;14.68;;;9.98;;
36663;SDS011;53333;51.976;20.144;2023-12-20T02:08:20;15.18;;;10.52;;
36663;SDS011;53333;51.976;20.144;2023-12-20T02:10:53;13.37;;;9.33;;
36663;SDS011;53333;51.976;20.144;2023-12-20T02:15:59;14.30;;;9.23;;
36663;SDS011;53333;51.976;20.144;2023-12-20T02:18:34;13.77;;;9.35;;
36663;SDS011;53333;51.976;20.144;2023-12-20T02:21:07;14.27;;;9.27;;
36663;SDS011;53333;51.976;20.144;2023-12-20T02:23:43;12.93;;;8.85;;
36663;SDS011;53333;51.976;20.144;2023-12-20T02:26:16;13.95;;;9.18;;
36663;SDS011;53333;51.976;20.144;2023-12-20T02:31:23;13.48;;;8.98;;
36663;SDS011;53333;51.976;20.144;2023-12-20T02:33:56;12.77;;;8.43;;
36663;SDS011;53333;51.976;20.144;2023-12-20T02:36:29;11.57;;;7.77;;
36663;SDS011;53333;51.976;20.144;2023-12-20T02:39:03;10.47;;;7.77;;
36663;SDS011;53333;51.976;20.144;2023-12-20T02:41:36;11.50;;;7.45;;
36663;SDS011;53333;51.976;20.144;2023-12-20T02:44:09;9.00;;;7.03;;
36663;SDS011;53333;51.976;20.144;2023-12-20T02:46:42;10.52;;;6.53;;
36663;SDS011;53333;51.976;20.144;2023-12-20T02:49:15;10.03;;;6.87;;
36663;SDS011;53333;51.976;20.144;2023-12-20T02:51:48;10.67;;;7.27;;
36663;SDS011;53333;51.976;20.144;2023-12-20T02:54:22;8.93;;;6.20;;
36663;SDS011;53333;51.976;20.144;2023-12-20T02:56:55;9.80;;;6.70;;
36663;SDS011;53333;51.976;20.144;2023-12-20T02:59:28;8.80;;;5.87;;
36663;SDS011;53333;51.976;20.144;2023-12-20T03:02:00;7.43;;;6.00;;
36663;SDS011;53333;51.976;20.144;2023-12-20T03:04:33;9.18;;;6.13;;
36663;SDS011;53333;51.976;20.144;2023-12-20T03:07:06;10.25;;;6.68;;
36663;SDS011;53333;51.976;20.144;2023-12-20T03:09:41;10.95;;;6.63;;
36663;SDS011;53333;51.976;20.144;2023-12-20T03:12:34;9.68;;;5.85;;
36663;SDS011;53333;51.976;20.144;2023-12-20T03:15:07;8.80;;;5.75;;
36663;SDS011;53333;51.976;20.144;2023-12-20T03:17:40;9.60;;;6.15;;
36663;SDS011;53333;51.976;20.144;2023-12-20T03:20:13;6.85;;;5.80;;
36663;SDS011;53333;51.976;20.144;2023-12-20T03:22:46;9.95;;;6.40;;
36663;SDS011;53333;51.976;20.144;2023-12-20T03:25:21;8.80;;;6.10;;
36663;SDS011;53333;51.976;20.144;2023-12-20T03:27:54;14.32;;;7.80;;
36663;SDS011;53333;51.976;20.144;2023-12-20T03:30:27;15.90;;;8.20;;
36663;SDS011;53333;51.976;20.144;2023-12-20T03:32:59;11.35;;;7.22;;
36663;SDS011;53333;51.976;20.144;2023-12-20T03:35:32;12.65;;;7.43;;
36663;SDS011;53333;51.976;20.144;2023-12-20T03:38:05;9.88;;;6.90;;
36663;SDS011;53333;51.976;20.144;2023-12-20T03:40:39;9.07;;;6.57;;
36663;SDS011;53333;51.976;20.144;2023-12-20T03:43:12;11.45;;;7.68;;
36663;SDS011;53333;51.976;20.144;2023-12-20T03:45:45;10.38;;;7.18;;
36663;SDS011;53333;51.976;20.144;2023-12-20T03:48:18;14.23;;;8.43;;
36663;SDS011;53333;51.976;20.144;2023-12-20T03:50:51;10.53;;;7.37;;
36663;SDS011;53333;51.976;20.144;2023-12-20T03:53:24;10.30;;;7.83;;
36663;SDS011;53333;51.976;20.144;2023-12-20T03:55:58;10.57;;;7.35;;
36663;SDS011;53333;51.976;20.144;2023-12-20T03:58:31;11.85;;;8.25;;
36663;SDS011;53333;51.976;20.144;2023-12-20T04:01:08;14.53;;;9.43;;
36663;SDS011;53333;51.976;20.144;2023-12-20T04:03:42;16.73;;;9.77;;
36663;SDS011;53333;51.976;20.144;2023-12-20T04:06:16;17.43;;;9.67;;
36663;SDS011;53333;51.976;20.144;2023-12-20T04:08:49;15.82;;;10.02;;
36663;SDS011;53333;51.976;20.144;2023-12-20T04:13:56;13.65;;;8.98;;
36663;SDS011;53333;51.976;20.144;2023-12-20T04:16:29;17.00;;;10.50;;
36663;SDS011;53333;51.976;20.144;2023-12-20T04:19:02;12.88;;;8.90;;
36663;SDS011;53333;51.976;20.144;2023-12-20T04:21:35;14.20;;;9.98;;
36663;SDS011;53333;51.976;20.144;2023-12-20T04:24:08;14.18;;;9.82;;
36663;SDS011;53333;51.976;20.144;2023-12-20T04:26:42;15.03;;;10.47;;
36663;SDS011;53333;51.976;20.144;2023-12-20T04:29:15;13.88;;;9.45;;
36663;SDS011;53333;51.976;20.144;2023-12-20T04:31:48;11.77;;;8.52;;
36663;SDS011;53333;51.976;20.144;2023-12-20T04:34:22;12.95;;;9.00;;
36663;SDS011;53333;51.976;20.144;2023-12-20T04:36:55;11.50;;;8.40;;
36663;SDS011;53333;51.976;20.144;2023-12-20T04:39:29;10.65;;;7.85;;
36663;SDS011;53333;51.976;20.144;2023-12-20T04:42:03;11.13;;;7.40;;
36663;SDS011;53333;51.976;20.144;2023-12-20T04:44:36;12.10;;;8.10;;
36663;SDS011;53333;51.976;20.144;2023-12-20T04:47:09;11.00;;;7.97;;
36663;SDS011;53333;51.976;20.144;2023-12-20T04:49:42;10.00;;;8.43;;
36663;SDS011;53333;51.976;20.144;2023-12-20T04:52:15;10.87;;;7.97;;
36663;SDS011;53333;51.976;20.144;2023-12-20T04:54:48;11.68;;;7.05;;
36663;SDS011;53333;51.976;20.144;2023-12-20T04:57:23;10.83;;;7.73;;
36663;SDS011;53333;51.976;20.144;2023-12-20T04:59:56;10.32;;;7.25;;
36663;SDS011;53333;51.976;20.144;2023-12-20T05:02:28;9.40;;;7.17;;
36663;SDS011;53333;51.976;20.144;2023-12-20T05:05:01;10.10;;;7.00;;
36663;SDS011;53333;51.976;20.144;2023-12-20T05:07:34;9.75;;;6.45;;
36663;SDS011;53333;51.976;20.144;2023-12-20T05:10:08;10.30;;;7.45;;
36663;SDS011;53333;51.976;20.144;2023-12-20T05:15:15;8.18;;;6.22;;
36663;SDS011;53333;51.976;20.144;2023-12-20T05:17:48;9.15;;;6.70;;
36663;SDS011;53333;51.976;20.144;2023-12-20T05:20:21;9.70;;;6.93;;
36663;SDS011;53333;51.976;20.144;2023-12-20T05:22:55;10.68;;;6.97;;
36663;SDS011;53333;51.976;20.144;2023-12-20T05:25:27;8.50;;;6.38;;
36663;SDS011;53333;51.976;20.144;2023-12-20T05:28:02;10.63;;;7.57;;
36663;SDS011;53333;51.976;20.144;2023-12-20T05:30:35;11.32;;;7.53;;
36663;SDS011;53333;51.976;20.144;2023-12-20T05:33:08;11.32;;;7.00;;
36663;SDS011;53333;51.976;20.144;2023-12-20T05:35:41;10.23;;;6.95;;
36663;SDS011;53333;51.976;20.144;2023-12-20T05:38:14;9.95;;;7.03;;
36663;SDS011;53333;51.976;20.144;2023-12-20T05:40:47;8.63;;;6.13;;
36663;SDS011;53333;51.976;20.144;2023-12-20T05:43:21;9.18;;;6.95;;
36663;SDS011;53333;51.976;20.144;2023-12-20T05:45:54;7.80;;;6.35;;
36663;SDS011;53333;51.976;20.144;2023-12-20T05:48:27;11.67;;;6.63;;
36663;SDS011;53333;51.976;20.144;2023-12-20T05:51:00;10.40;;;6.63;;
36663;SDS011;53333;51.976;20.144;2023-12-20T05:53:33;10.80;;;6.38;;
36663;SDS011;53333;51.976;20.144;2023-12-20T05:56:06;10.70;;;6.83;;
36663;SDS011;53333;51.976;20.144;2023-12-20T05:58:40;12.35;;;7.00;;
36663;SDS011;53333;51.976;20.144;2023-12-20T06:01:14;11.52;;;7.03;;
36663;SDS011;53333;51.976;20.144;2023-12-20T06:03:48;11.25;;;7.18;;
36663;SDS011;53333;51.976;20.144;2023-12-20T06:06:22;14.00;;;8.90;;
36663;SDS011;53333;51.976;20.144;2023-12-20T06:08:55;12.05;;;7.85;;
36663;SDS011;53333;51.976;20.144;2023-12-20T06:11:28;14.93;;;8.57;;
36663;SDS011;53333;51.976;20.144;2023-12-20T06:14:02;11.77;;;8.68;;
36663;SDS011;53333;51.976;20.144;2023-12-20T06:16:35;14.80;;;9.18;;
36663;SDS011;53333;51.976;20.144;2023-12-20T06:19:08;14.37;;;8.83;;
36663;SDS011;53333;51.976;20.144;2023-12-20T06:21:41;15.90;;;9.27;;
36663;SDS011;53333;51.976;20.144;2023-12-20T06:24:15;16.73;;;10.00;;
36663;SDS011;53333;51.976;20.144;2023-12-20T06:26:48;16.30;;;9.30;;
36663;SDS011;53333;51.976;20.144;2023-12-20T06:29:23;11.98;;;8.68;;
36663;SDS011;53333;51.976;20.144;2023-12-20T06:31:56;12.43;;;7.60;;
36663;SDS011;53333;51.976;20.144;2023-12-20T06:34:28;11.45;;;8.38;;
36663;SDS011;53333;51.976;20.144;2023-12-20T06:37:02;11.80;;;8.05;;
36663;SDS011;53333;51.976;20.144;2023-12-20T06:39:36;10.00;;;7.75;;
36663;SDS011;53333;51.976;20.144;2023-12-20T06:42:09;14.30;;;7.77;;
36663;SDS011;53333;51.976;20.144;2023-12-20T06:44:43;15.63;;;8.18;;
36663;SDS011;53333;51.976;20.144;2023-12-20T06:47:16;12.63;;;7.80;;
36663;SDS011;53333;51.976;20.144;2023-12-20T06:49:49;10.73;;;7.47;;
36663;SDS011;53333;51.976;20.144;2023-12-20T06:52:22;11.15;;;7.90;;
36663;SDS011;53333;51.976;20.144;2023-12-20T06:54:55;10.80;;;7.80;;
36663;SDS011;53333;51.976;20.144;2023-12-20T06:57:29;14.98;;;8.32;;
36663;SDS011;53333;51.976;20.144;2023-12-20T07:00:04;12.98;;;8.82;;
36663;SDS011;53333;51.976;20.144;2023-12-20T07:02:37;15.93;;;8.88;;
36663;SDS011;53333;51.976;20.144;2023-12-20T07:05:10;14.77;;;9.00;;
36663;SDS011;53333;51.976;20.144;2023-12-20T07:07:43;16.43;;;9.33;;
36663;SDS011;53333;51.976;20.144;2023-12-20T07:10:16;15.27;;;9.23;;
36663;SDS011;53333;51.976;20.144;2023-12-20T07:12:49;14.68;;;10.07;;
36663;SDS011;53333;51.976;20.144;2023-12-20T07:15:25;13.95;;;9.15;;
36663;SDS011;53333;51.976;20.144;2023-12-20T07:17:58;13.88;;;8.88;;
36663;SDS011;53333;51.976;20.144;2023-12-20T07:20:32;15.60;;;9.20;;
36663;SDS011;53333;51.976;20.144;2023-12-20T07:23:05;11.88;;;8.50;;
36663;SDS011;53333;51.976;20.144;2023-12-20T07:25:38;16.50;;;10.50;;
36663;SDS011;53333;51.976;20.144;2023-12-20T07:28:11;13.32;;;9.30;;
36663;SDS011;53333;51.976;20.144;2023-12-20T07:30:45;13.87;;;9.60;;
36663;SDS011;53333;51.976;20.144;2023-12-20T07:33:18;16.05;;;10.43;;
36663;SDS011;53333;51.976;20.144;2023-12-20T07:35:51;15.25;;;9.82;;
36663;SDS011;53333;51.976;20.144;2023-12-20T07:38:25;14.30;;;9.93;;
36663;SDS011;53333;51.976;20.144;2023-12-20T07:40:57;17.53;;;11.20;;
36663;SDS011;53333;51.976;20.144;2023-12-20T07:43:30;16.02;;;9.63;;
36663;SDS011;53333;51.976;20.144;2023-12-20T07:46:05;18.65;;;11.00;;
36663;SDS011;53333;51.976;20.144;2023-12-20T07:48:39;15.63;;;9.95;;
36663;SDS011;53333;51.976;20.144;2023-12-20T07:51:16;19.58;;;11.23;;
36663;SDS011;53333;51.976;20.144;2023-12-20T07:53:49;17.15;;;9.98;;
36663;SDS011;53333;51.976;20.144;2023-12-20T07:56:22;18.92;;;11.38;;
36663;SDS011;53333;51.976;20.144;2023-12-20T07:58:55;14.88;;;9.57;;
36663;SDS011;53333;51.976;20.144;2023-12-20T08:01:32;19.00;;;10.07;;
36663;SDS011;53333;51.976;20.144;2023-12-20T08:04:05;16.92;;;10.88;;
36663;SDS011;53333;51.976;20.144;2023-12-20T08:06:38;14.68;;;8.70;;
36663;SDS011;53333;51.976;20.144;2023-12-20T08:09:11;16.83;;;10.55;;
36663;SDS011;53333;51.976;20.144;2023-12-20T08:11:47;21.75;;;11.32;;
36663;SDS011;53333;51.976;20.144;2023-12-20T08:14:28;21.52;;;11.65;;
36663;SDS011;53333;51.976;20.144;2023-12-20T08:17:12;18.60;;;10.82;;
36663;SDS011;53333;51.976;20.144;2023-12-20T08:19:47;15.35;;;10.10;;
36663;SDS011;53333;51.976;20.144;2023-12-20T08:22:20;13.40;;;9.23;;
36663;SDS011;53333;51.976;20.144;2023-12-20T08:24:53;31.50;;;16.40;;
36663;SDS011;53333;51.976;20.144;2023-12-20T08:27:26;52.63;;;29.77;;
36663;SDS011;53333;51.976;20.144;2023-12-20T08:29:59;18.33;;;10.68;;
36663;SDS011;53333;51.976;20.144;2023-12-20T08:32:34;11.57;;;7.63;;
36663;SDS011;53333;51.976;20.144;2023-12-20T08:35:07;16.02;;;8.20;;
36663;SDS011;53333;51.976;20.144;2023-12-20T08:37:40;13.52;;;8.15;;
36663;SDS011;53333;51.976;20.144;2023-12-20T08:40:13;13.27;;;8.25;;
36663;SDS011;53333;51.976;20.144;2023-12-20T08:42:46;12.33;;;8.13;;
36663;SDS011;53333;51.976;20.144;2023-12-20T08:45:19;12.00;;;8.13;;
36663;SDS011;53333;51.976;20.144;2023-12-20T08:47:53;11.50;;;7.13;;
36663;SDS011;53333;51.976;20.144;2023-12-20T08:50:30;10.93;;;7.70;;
36663;SDS011;53333;51.976;20.144;2023-12-20T08:53:03;9.30;;;6.85;;
36663;SDS011;53333;51.976;20.144;2023-12-20T08:55:36;11.50;;;7.22;;
36663;SDS011;53333;51.976;20.144;2023-12-20T08:58:10;10.73;;;7.13;;
36663;SDS011;53333;51.976;20.144;2023-12-20T09:00:43;11.00;;;7.22;;
36663;SDS011;53333;51.976;20.144;2023-12-20T09:03:17;10.25;;;6.75;;
36663;SDS011;53333;51.976;20.144;2023-12-20T09:05:50;21.67;;;12.30;;
36663;SDS011;53333;51.976;20.144;2023-12-20T09:08:23;9.27;;;6.83;;
36663;SDS011;53333;51.976;20.144;2023-12-20T09:10:56;10.00;;;6.60;;
36663;SDS011;53333;51.976;20.144;2023-12-20T09:13:29;14.25;;;7.10;;
36663;SDS011;53333;51.976;20.144;2023-12-20T09:16:03;10.88;;;7.22;;
36663;SDS011;53333;51.976;20.144;2023-12-20T09:18:38;12.55;;;8.30;;
36663;SDS011;53333;51.976;20.144;2023-12-20T09:21:11;10.73;;;7.63;;
36663;SDS011;53333;51.976;20.144;2023-12-20T09:23:45;10.80;;;7.72;;
36663;SDS011;53333;51.976;20.144;2023-12-20T09:26:18;12.23;;;7.90;;
36663;SDS011;53333;51.976;20.144;2023-12-20T09:28:52;11.32;;;7.85;;
36663;SDS011;53333;51.976;20.144;2023-12-20T09:31:25;11.33;;;7.40;;
36663;SDS011;53333;51.976;20.144;2023-12-20T09:34:00;12.23;;;7.80;;
36663;SDS011;53333;51.976;20.144;2023-12-20T09:36:34;11.70;;;8.70;;
36663;SDS011;53333;51.976;20.144;2023-12-20T09:39:07;13.80;;;8.32;;
36663;SDS011;53333;51.976;20.144;2023-12-20T09:41:41;10.97;;;7.70;;
36663;SDS011;53333;51.976;20.144;2023-12-20T09:44:16;11.35;;;6.78;;
36663;SDS011;53333;51.976;20.144;2023-12-20T09:46:50;9.90;;;6.85;;
36663;SDS011;53333;51.976;20.144;2023-12-20T09:49:25;13.38;;;6.90;;
36663;SDS011;53333;51.976;20.144;2023-12-20T09:52:00;9.02;;;6.80;;
36663;SDS011;53333;51.976;20.144;2023-12-20T09:54:33;33.60;;;18.58;;
36663;SDS011;53333;51.976;20.144;2023-12-20T09:57:06;10.40;;;6.77;;
36663;SDS011;53333;51.976;20.144;2023-12-20T09:59:39;7.55;;;5.90;;
36663;SDS011;53333;51.976;20.144;2023-12-20T10:02:13;7.75;;;5.90;;
36663;SDS011;53333;51.976;20.144;2023-12-20T10:04:48;9.70;;;6.40;;
36663;SDS011;53333;51.976;20.144;2023-12-20T10:07:21;8.63;;;5.53;;
36663;SDS011;53333;51.976;20.144;2023-12-20T10:09:55;9.52;;;6.40;;
36663;SDS011;53333;51.976;20.144;2023-12-20T10:12:28;9.73;;;6.93;;
36663;SDS011;53333;51.976;20.144;2023-12-20T10:15:03;9.88;;;6.63;;
36663;SDS011;53333;51.976;20.144;2023-12-20T10:20:11;11.75;;;6.47;;
36663;SDS011;53333;51.976;20.144;2023-12-20T10:22:44;14.93;;;7.80;;
36663;SDS011;53333;51.976;20.144;2023-12-20T10:25:17;11.07;;;7.47;;
36663;SDS011;53333;51.976;20.144;2023-12-20T10:28:08;10.40;;;6.55;;
36663;SDS011;53333;51.976;20.144;2023-12-20T10:30:42;9.82;;;6.75;;
36663;SDS011;53333;51.976;20.144;2023-12-20T10:33:19;10.95;;;7.65;;
36663;SDS011;53333;51.976;20.144;2023-12-20T10:35:57;9.07;;;5.45;;
36663;SDS011;53333;51.976;20.144;2023-12-20T10:38:30;8.80;;;5.47;;
36663;SDS011;53333;51.976;20.144;2023-12-20T10:41:03;9.10;;;6.15;;
36663;SDS011;53333;51.976;20.144;2023-12-20T10:43:38;9.38;;;5.32;;
36663;SDS011;53333;51.976;20.144;2023-12-20T10:46:12;7.55;;;5.15;;
36663;SDS011;53333;51.976;20.144;2023-12-20T10:48:45;7.10;;;4.63;;
36663;SDS011;53333;51.976;20.144;2023-12-20T10:51:21;6.80;;;3.83;;
36663;SDS011;53333;51.976;20.144;2023-12-20T10:53:55;6.47;;;4.82;;
36663;SDS011;53333;51.976;20.144;2023-12-20T10:56:29;7.95;;;4.78;;
36663;SDS011;53333;51.976;20.144;2023-12-20T10:59:05;8.02;;;5.15;;
36663;SDS011;53333;51.976;20.144;2023-12-20T11:01:41;8.68;;;5.25;;
36663;SDS011;53333;51.976;20.144;2023-12-20T11:04:15;9.52;;;5.65;;
36663;SDS011;53333;51.976;20.144;2023-12-20T11:06:54;9.10;;;5.47;;
36663;SDS011;53333;51.976;20.144;2023-12-20T11:09:35;8.75;;;6.00;;
36663;SDS011;53333;51.976;20.144;2023-12-20T11:12:13;10.75;;;5.78;;
36663;SDS011;53333;51.976;20.144;2023-12-20T11:14:51;8.15;;;4.78;;
36663;SDS011;53333;51.976;20.144;2023-12-20T11:17:27;7.93;;;4.85;;
36663;SDS011;53333;51.976;20.144;2023-12-20T11:20:04;7.05;;;5.03;;
36663;SDS011;53333;51.976;20.144;2023-12-20T11:22:40;6.13;;;4.60;;
36663;SDS011;53333;51.976;20.144;2023-12-20T11:25:25;7.50;;;4.43;;
36663;SDS011;53333;51.976;20.144;2023-12-20T11:28:08;6.03;;;4.05;;
36663;SDS011;53333;51.976;20.144;2023-12-20T11:30:46;6.50;;;3.42;;
36663;SDS011;53333;51.976;20.144;2023-12-20T11:33:21;5.95;;;3.63;;
36663;SDS011;53333;51.976;20.144;2023-12-20T11:35:59;3.78;;;3.10;;
36663;SDS011;53333;51.976;20.144;2023-12-20T11:38:36;3.60;;;2.97;;
36663;SDS011;53333;51.976;20.144;2023-12-20T11:41:09;8.65;;;4.50;;
36663;SDS011;53333;51.976;20.144;2023-12-20T11:46:16;6.20;;;3.70;;
36663;SDS011;53333;51.976;20.144;2023-12-20T11:48:50;5.15;;;3.28;;
36663;SDS011;53333;51.976;20.144;2023-12-20T11:51:23;5.95;;;3.85;;
36663;SDS011;53333;51.976;20.144;2023-12-20T11:54:00;6.57;;;4.47;;
36663;SDS011;53333;51.976;20.144;2023-12-20T11:56:33;11.77;;;5.18;;
36663;SDS011;53333;51.976;20.144;2023-12-20T11:59:07;7.20;;;4.93;;
36663;SDS011;53333;51.976;20.144;2023-12-20T12:01:53;9.32;;;5.95;;
36663;SDS011;53333;51.976;20.144;2023-12-20T12:04:32;10.77;;;4.85;;
36663;SDS011;53333;51.976;20.144;2023-12-20T12:07:05;7.65;;;5.28;;
36663;SDS011;53333;51.976;20.144;2023-12-20T12:09:39;8.37;;;5.20;;
36663;SDS011;53333;51.976;20.144;2023-12-20T12:12:12;9.40;;;4.78;;
36663;SDS011;53333;51.976;20.144;2023-12-20T12:14:45;5.90;;;4.55;;
36663;SDS011;53333;51.976;20.144;2023-12-20T12:17:18;8.60;;;5.35;;
36663;SDS011;53333;51.976;20.144;2023-12-20T12:19:51;6.77;;;4.83;;
36663;SDS011;53333;51.976;20.144;2023-12-20T12:22:36;7.40;;;5.30;;
36663;SDS011;53333;51.976;20.144;2023-12-20T12:25:11;16.63;;;9.13;;
36663;SDS011;53333;51.976;20.144;2023-12-20T12:27:45;12.57;;;7.47;;
36663;SDS011;53333;51.976;20.144;2023-12-20T12:30:18;14.80;;;7.38;;
36663;SDS011;53333;51.976;20.144;2023-12-20T12:32:53;10.25;;;7.13;;
36663;SDS011;53333;51.976;20.144;2023-12-20T12:35:28;12.43;;;7.10;;
36663;SDS011;53333;51.976;20.144;2023-12-20T12:38:01;13.20;;;7.33;;
36663;SDS011;53333;51.976;20.144;2023-12-20T12:40:36;12.13;;;7.35;;
36663;SDS011;53333;51.976;20.144;2023-12-20T12:43:08;12.35;;;6.53;;
36663;SDS011;53333;51.976;20.144;2023-12-20T12:45:41;14.47;;;6.57;;
36663;SDS011;53333;51.976;20.144;2023-12-20T12:48:15;12.50;;;7.15;;
36663;SDS011;53333;51.976;20.144;2023-12-20T12:50:48;12.13;;;6.47;;
36663;SDS011;53333;51.976;20.144;2023-12-20T12:53:23;10.68;;;6.80;;
36663;SDS011;53333;51.976;20.144;2023-12-20T12:55:57;13.23;;;7.60;;
36663;SDS011;53333;51.976;20.144;2023-12-20T12:58:30;16.60;;;9.23;;
36663;SDS011;53333;51.976;20.144;2023-12-20T13:01:04;12.98;;;8.68;;
36663;SDS011;53333;51.976;20.144;2023-12-20T13:03:37;16.90;;;10.73;;
36663;SDS011;53333;51.976;20.144;2023-12-20T13:06:10;16.75;;;9.00;;
36663;SDS011;53333;51.976;20.144;2023-12-20T13:08:43;12.67;;;8.17;;
36663;SDS011;53333;51.976;20.144;2023-12-20T13:11:18;13.52;;;8.48;;
36663;SDS011;53333;51.976;20.144;2023-12-20T13:13:50;11.25;;;7.00;;
36663;SDS011;53333;51.976;20.144;2023-12-20T13:16:23;11.70;;;6.83;;
36663;SDS011;53333;51.976;20.144;2023-12-20T13:18:56;18.00;;;10.52;;
36663;SDS011;53333;51.976;20.144;2023-12-20T13:21:31;11.18;;;7.32;;
36663;SDS011;53333;51.976;20.144;2023-12-20T13:24:04;9.90;;;6.60;;
36663;SDS011;53333;51.976;20.144;2023-12-20T13:26:39;13.27;;;7.43;;
36663;SDS011;53333;51.976;20.144;2023-12-20T13:29:12;11.85;;;6.20;;
36663;SDS011;53333;51.976;20.144;2023-12-20T13:31:45;10.77;;;6.00;;
36663;SDS011;53333;51.976;20.144;2023-12-20T13:34:18;10.75;;;6.82;;
36663;SDS011;53333;51.976;20.144;2023-12-20T13:36:51;10.98;;;6.07;;
36663;SDS011;53333;51.976;20.144;2023-12-20T13:39:24;11.30;;;6.05;;
36663;SDS011;53333;51.976;20.144;2023-12-20T13:41:58;8.07;;;5.90;;
36663;SDS011;53333;51.976;20.144;2023-12-20T13:44:32;9.60;;;5.95;;
36663;SDS011;53333;51.976;20.144;2023-12-20T13:47:05;8.07;;;5.60;;
36663;SDS011;53333;51.976;20.144;2023-12-20T13:49:39;7.13;;;5.45;;
36663;SDS011;53333;51.976;20.144;2023-12-20T13:52:12;8.93;;;6.50;;
36663;SDS011;53333;51.976;20.144;2023-12-20T13:54:45;9.60;;;5.87;;
36663;SDS011;53333;51.976;20.144;2023-12-20T13:57:19;8.77;;;5.15;;
36663;SDS011;53333;51.976;20.144;2023-12-20T14:00:13;9.10;;;5.63;;
36663;SDS011;53333;51.976;20.144;2023-12-20T14:02:47;9.98;;;5.45;;
36663;SDS011;53333;51.976;20.144;2023-12-20T14:05:21;12.82;;;6.07;;
36663;SDS011;53333;51.976;20.144;2023-12-20T14:07:59;12.05;;;5.55;;
36663;SDS011;53333;51.976;20.144;2023-12-20T14:10:32;10.35;;;5.55;;
36663;SDS011;53333;51.976;20.144;2023-12-20T14:13:07;12.10;;;5.60;;
36663;SDS011;53333;51.976;20.144;2023-12-20T14:15:40;13.57;;;6.38;;
36663;SDS011;53333;51.976;20.144;2023-12-20T14:18:13;18.17;;;9.67;;
36663;SDS011;53333;51.976;20.144;2023-12-20T14:20:47;13.43;;;6.25;;
36663;SDS011;53333;51.976;20.144;2023-12-20T14:23:21;14.98;;;6.90;;
36663;SDS011;53333;51.976;20.144;2023-12-20T14:25:55;13.50;;;6.68;;
36663;SDS011;53333;51.976;20.144;2023-12-20T14:28:31;10.98;;;6.28;;
36663;SDS011;53333;51.976;20.144;2023-12-20T14:31:04;12.13;;;5.80;;
36663;SDS011;53333;51.976;20.144;2023-12-20T14:33:37;10.30;;;6.47;;
36663;SDS011;53333;51.976;20.144;2023-12-20T14:36:12;11.23;;;6.18;;
36663;SDS011;53333;51.976;20.144;2023-12-20T14:38:45;12.03;;;5.87;;
36663;SDS011;53333;51.976;20.144;2023-12-20T14:41:18;13.13;;;6.35;;
36663;SDS011;53333;51.976;20.144;2023-12-20T14:43:53;11.77;;;6.07;;
36663;SDS011;53333;51.976;20.144;2023-12-20T14:46:26;10.55;;;5.65;;
36663;SDS011;53333;51.976;20.144;2023-12-20T14:51:34;11.10;;;5.68;;
36663;SDS011;53333;51.976;20.144;2023-12-20T14:54:09;9.15;;;5.50;;
36663;SDS011;53333;51.976;20.144;2023-12-20T14:56:42;13.95;;;7.15;;
36663;SDS011;53333;51.976;20.144;2023-12-20T14:59:16;15.23;;;7.15;;
36663;SDS011;53333;51.976;20.144;2023-12-20T15:01:49;13.63;;;7.97;;
36663;SDS011;53333;51.976;20.144;2023-12-20T15:07:00;13.48;;;6.82;;
36663;SDS011;53333;51.976;20.144;2023-12-20T15:09:34;13.40;;;7.95;;
36663;SDS011;53333;51.976;20.144;2023-12-20T15:12:07;16.67;;;6.87;;
36663;SDS011;53333;51.976;20.144;2023-12-20T15:14:42;13.70;;;7.32;;
36663;SDS011;53333;51.976;20.144;2023-12-20T15:17:16;12.82;;;6.85;;
36663;SDS011;53333;51.976;20.144;2023-12-20T15:19:49;13.77;;;7.50;;
36663;SDS011;53333;51.976;20.144;2023-12-20T15:22:22;11.43;;;6.87;;